sensor_id;sensor_type;location;lat;lon;timestamp;pressure;altitude;pressure_sealevel;temperature;humidity
6565;BME280;3316;44.118;27.258;2023-12-22T00:02:07;99484.50;;;4.15;100.00
6565;BME280;3316;44.118;27.258;2023-12-22T00:04:32;99414.34;;;3.76;100.00
6565;BME280;3316;44.118;27.258;2023-12-22T00:06:58;99478.41;;;4.12;100.00
6565;BME280;3316;44.118;27.258;2023-12-22T00:09:23;99481.91;;;4.15;100.00
6565;BME280;3316;44.118;27.258;2023-12-22T00:11:48;99452.44;;;4.07;100.00
6565;BME280;3316;44.118;27.258;2023-12-22T00:14:14;99439.44;;;3.91;100.00
6565;BME280;3316;44.118;27.258;2023-12-22T00:16:39;99458.50;;;4.09;100.00
6565;BME280;3316;44.118;27.258;2023-12-22T00:19:05;99453.28;;;4.09;100.00
6565;BME280;3316;44.118;27.258;2023-12-22T00:21:30;99427.34;;;3.79;100.00
6565;BME280;3316;44.118;27.258;2023-12-22T00:23:57;99468.03;;;4.04;100.00
6565;BME280;3316;44.118;27.258;2023-12-22T00:26:22;99453.28;;;4.05;100.00
6565;BME280;3316;44.118;27.258;2023-12-22T00:28:48;99448.97;;;3.99;100.00
6565;BME280;3316;44.118;27.258;2023-12-22T00:31:13;99444.63;;;3.97;100.00
6565;BME280;3316;44.118;27.258;2023-12-22T00:33:39;99455.91;;;4.03;100.00
6565;BME280;3316;44.118;27.258;2023-12-22T00:36:04;99458.53;;;4.02;100.00
6565;BME280;3316;44.118;27.258;2023-12-22T00:38:30;99440.31;;;3.97;100.00
6565;BME280;3316;44.118;27.258;2023-12-22T00:40:56;99434.22;;;3.97;100.00
6565;BME280;3316;44.118;27.258;2023-12-22T00:43:21;99440.31;;;3.97;100.00
6565;BME280;3316;44.118;27.258;2023-12-22T00:45:47;99424.69;;;4.02;100.00
6565;BME280;3316;44.118;27.258;2023-12-22T00:48:12;99419.50;;;4.02;100.00
6565;BME280;3316;44.118;27.258;2023-12-22T00:50:38;99415.16;;;3.99;100.00
6565;BME280;3316;44.118;27.258;2023-12-22T00:53:03;99407.34;;;3.99;100.00
6565;BME280;3316;44.118;27.258;2023-12-22T00:55:28;99414.22;;;4.14;100.00
6565;BME280;3316;44.118;27.258;2023-12-22T00:57:54;99414.25;;;4.06;100.00
6565;BME280;3316;44.118;27.258;2023-12-22T01:00:19;99415.91;;;4.28;100.00
6565;BME280;3316;44.118;27.258;2023-12-22T01:02:45;99374.34;;;4.07;100.00
6565;BME280;3316;44.118;27.258;2023-12-22T01:05:10;99408.03;;;4.37;100.00
6565;BME280;3316;44.118;27.258;2023-12-22T01:07:36;99409.69;;;4.53;100.00
6565;BME280;3316;44.118;27.258;2023-12-22T01:10:01;99403.63;;;4.50;100.00
6565;BME280;3316;44.118;27.258;2023-12-22T01:12:29;99393.19;;;4.51;100.00
6565;BME280;3316;44.118;27.258;2023-12-22T01:15:01;99355.13;;;4.29;100.00
6565;BME280;3316;44.118;27.258;2023-12-22T01:17:27;99390.63;;;4.48;100.00
6565;BME280;3316;44.118;27.258;2023-12-22T01:19:53;99382.81;;;4.45;100.00
6565;BME280;3316;44.118;27.258;2023-12-22T01:22:18;99377.63;;;4.42;100.00
6565;BME280;3316;44.118;27.258;2023-12-22T01:24:44;99374.19;;;4.37;100.00
6565;BME280;3316;44.118;27.258;2023-12-22T01:27:11;99374.22;;;4.34;100.00
6565;BME280;3316;44.118;27.258;2023-12-22T01:29:36;99362.91;;;4.34;100.00
6565;BME280;3316;44.118;27.258;2023-12-22T01:32:02;99342.06;;;4.37;100.00
6565;BME280;3316;44.118;27.258;2023-12-22T01:34:28;99349.84;;;4.46;100.00
6565;BME280;3316;44.118;27.258;2023-12-22T01:36:53;99333.28;;;4.51;100.00
6565;BME280;3316;44.118;27.258;2023-12-22T01:39:19;99318.50;;;4.55;100.00
6565;BME280;3316;44.118;27.258;2023-12-22T01:41:44;99292.47;;;4.53;100.00
6565;BME280;3316;44.118;27.258;2023-12-22T01:44:10;99290.75;;;4.54;100.00
6565;BME280;3316;44.118;27.258;2023-12-22T01:46:36;99280.28;;;4.57;100.00
6565;BME280;3316;44.118;27.258;2023-12-22T01:49:02;99293.28;;;4.63;100.00
6565;BME280;3316;44.118;27.258;2023-12-22T01:51:29;99262.88;;;4.64;100.00
6565;BME280;3316;44.118;27.258;2023-12-22T01:53:56;99273.19;;;4.77;100.00
6565;BME280;3316;44.118;27.258;2023-12-22T01:56:21;99277.47;;;4.83;100.00
6565;BME280;3316;44.118;27.258;2023-12-22T01:58:47;99265.31;;;4.83;100.00
6565;BME280;3316;44.118;27.258;2023-12-22T02:01:13;99271.28;;;4.94;100.00
6565;BME280;3316;44.118;27.258;2023-12-22T02:03:39;99258.22;;;4.96;100.00
6565;BME280;3316;44.118;27.258;2023-12-22T02:06:05;99244.38;;;4.95;100.00
6565;BME280;3316;44.118;27.258;2023-12-22T02:08:32;99250.44;;;4.94;100.00
6565;BME280;3316;44.118;27.258;2023-12-22T02:10:58;99236.63;;;4.86;100.00
6565;BME280;3316;44.118;27.258;2023-12-22T02:13:24;99227.94;;;4.87;100.00
6565;BME280;3316;44.118;27.258;2023-12-22T02:15:55;99228.75;;;4.92;100.00
6565;BME280;3316;44.118;27.258;2023-12-22T02:18:27;99229.63;;;4.93;100.00
6565;BME280;3316;44.118;27.258;2023-12-22T02:20:56;99203.72;;;4.75;100.00
6565;BME280;3316;44.118;27.258;2023-12-22T02:23:22;99218.44;;;4.82;100.00
6565;BME280;3316;44.118;27.258;2023-12-22T02:25:49;99227.88;;;4.90;100.00
6565;BME280;3316;44.118;27.258;2023-12-22T02:28:19;99227.91;;;4.86;100.00
6565;BME280;3316;44.118;27.258;2023-12-22T02:33:14;99215.91;;;4.73;100.00
6565;BME280;3316;44.118;27.258;2023-12-22T02:35:41;99227.19;;;4.75;100.00
6565;BME280;3316;44.118;27.258;2023-12-22T02:38:08;99227.19;;;4.75;100.00
6565;BME280;3316;44.118;27.258;2023-12-22T02:40:34;99221.13;;;4.73;100.00
6565;BME280;3316;44.118;27.258;2023-12-22T02:43:01;99215.03;;;4.72;100.00
6565;BME280;3316;44.118;27.258;2023-12-22T02:45:27;99241.94;;;4.77;100.00
6565;BME280;3316;44.118;27.258;2023-12-22T02:47:53;99215.09;;;4.68;100.00
6565;BME280;3316;44.118;27.258;2023-12-22T02:50:18;99230.47;;;4.93;100.00
6565;BME280;3316;44.118;27.258;2023-12-22T02:52:44;99230.44;;;4.96;100.00
6565;BME280;3316;44.118;27.258;2023-12-22T02:55:09;99212.22;;;4.95;100.00
6565;BME280;3316;44.118;27.258;2023-12-22T02:57:35;99200.88;;;4.99;100.00
6565;BME280;3316;44.118;27.258;2023-12-22T03:00:01;99211.25;;;5.03;100.00
6565;BME280;3316;44.118;27.258;2023-12-22T03:02:26;99199.19;;;4.92;100.00
6565;BME280;3316;44.118;27.258;2023-12-22T03:04:52;99211.31;;;4.99;100.00
6565;BME280;3316;44.118;27.258;2023-12-22T03:07:17;99171.53;;;4.83;100.00
6565;BME280;3316;44.118;27.258;2023-12-22T03:09:43;99211.25;;;5.03;100.00
6565;BME280;3316;44.118;27.258;2023-12-22T03:12:09;99197.44;;;4.94;100.00
6565;BME280;3316;44.118;27.258;2023-12-22T03:14:35;99196.50;;;4.99;100.00
6565;BME280;3316;44.118;27.258;2023-12-22T03:17:03;99198.25;;;5.00;100.00
6565;BME280;3316;44.118;27.258;2023-12-22T03:19:29;99190.38;;;5.06;100.00
6565;BME280;3316;44.118;27.258;2023-12-22T03:21:54;99186.97;;;5.00;100.00
6565;BME280;3316;44.118;27.258;2023-12-22T03:24:22;99217.19;;;5.16;100.00
6565;BME280;3316;44.118;27.258;2023-12-22T03:26:48;99183.47;;;5.02;100.00
6565;BME280;3316;44.118;27.258;2023-12-22T03:29:14;99192.00;;;5.13;100.00
6565;BME280;3316;44.118;27.258;2023-12-22T03:31:39;99206.72;;;5.19;100.00
6565;BME280;3316;44.118;27.258;2023-12-22T03:34:05;99185.97;;;5.13;100.00
6565;BME280;3316;44.118;27.258;2023-12-22T03:36:30;99201.50;;;5.20;100.00
6565;BME280;3316;44.118;27.258;2023-12-22T03:38:56;99170.38;;;5.05;100.00
6565;BME280;3316;44.118;27.258;2023-12-22T03:41:21;99178.06;;;5.17;100.00
6565;BME280;3316;44.118;27.258;2023-12-22T03:43:47;99187.47;;;5.29;100.00
6565;BME280;3316;44.118;27.258;2023-12-22T03:46:12;99183.19;;;5.25;100.00
6565;BME280;3316;44.118;27.258;2023-12-22T03:48:37;99182.28;;;5.27;100.00
6565;BME280;3316;44.118;27.258;2023-12-22T03:51:03;99188.28;;;5.32;100.00
6565;BME280;3316;44.118;27.258;2023-12-22T03:53:28;99180.50;;;5.31;100.00
6565;BME280;3316;44.118;27.258;2023-12-22T03:55:54;99183.97;;;5.31;100.00
6565;BME280;3316;44.118;27.258;2023-12-22T03:58:20;99173.56;;;5.30;100.00
6565;BME280;3316;44.118;27.258;2023-12-22T04:00:45;99164.03;;;5.27;100.00
6565;BME280;3316;44.118;27.258;2023-12-22T04:03:11;99176.09;;;5.37;100.00
6565;BME280;3316;44.118;27.258;2023-12-22T04:05:36;99143.22;;;5.24;100.00
6565;BME280;3316;44.118;27.258;2023-12-22T04:08:01;99170.75;;;5.45;100.00
6565;BME280;3316;44.118;27.258;2023-12-22T04:10:27;99150.09;;;5.30;100.00
6565;BME280;3316;44.118;27.258;2023-12-22T04:12:52;99129.25;;;5.30;100.00
6565;BME280;3316;44.118;27.258;2023-12-22T04:15:18;99148.16;;;5.46;100.00
6565;BME280;3316;44.118;27.258;2023-12-22T04:17:43;99149.84;;;5.48;100.00
6565;BME280;3316;44.118;27.258;2023-12-22T04:20:09;99159.28;;;5.58;100.00
6565;BME280;3316;44.118;27.258;2023-12-22T04:22:34;99167.00;;;5.67;100.00
6565;BME280;3316;44.118;27.258;2023-12-22T04:25:00;99113.34;;;5.47;100.00
6565;BME280;3316;44.118;27.258;2023-12-22T04:27:25;99141.00;;;5.60;100.00
6565;BME280;3316;44.118;27.258;2023-12-22T04:29:51;99156.56;;;5.66;100.00
6565;BME280;3316;44.118;27.258;2023-12-22T04:32:16;99147.06;;;5.62;100.00
6565;BME280;3316;44.118;27.258;2023-12-22T04:34:41;99141.81;;;5.63;100.00
6565;BME280;3316;44.118;27.258;2023-12-22T04:37:07;99159.91;;;5.74;100.00
6565;BME280;3316;44.118;27.258;2023-12-22T04:39:32;99138.25;;;5.69;100.00
6565;BME280;3316;44.118;27.258;2023-12-22T04:41:58;99146.81;;;5.78;100.00
6565;BME280;3316;44.118;27.258;2023-12-22T04:44:24;99145.94;;;5.79;100.00
6565;BME280;3316;44.118;27.258;2023-12-22T04:46:50;99147.66;;;5.80;100.00
6565;BME280;3316;44.118;27.258;2023-12-22T04:49:15;99148.47;;;5.87;100.00
6565;BME280;3316;44.118;27.258;2023-12-22T04:51:42;99109.50;;;5.72;100.00
6565;BME280;3316;44.118;27.258;2023-12-22T04:54:07;99141.44;;;5.90;100.00
6565;BME280;3316;44.118;27.258;2023-12-22T04:56:33;99127.63;;;5.82;100.00
6565;BME280;3316;44.118;27.258;2023-12-22T04:58:59;99129.25;;;5.92;100.00
6565;BME280;3316;44.118;27.258;2023-12-22T05:01:24;99132.59;;;5.99;100.00
6565;BME280;3316;44.118;27.258;2023-12-22T05:03:50;99134.31;;;6.01;100.00
6565;BME280;3316;44.118;27.258;2023-12-22T05:06:15;99110.97;;;5.92;100.00
6565;BME280;3316;44.118;27.258;2023-12-22T05:08:40;99131.69;;;6.01;100.00
6565;BME280;3316;44.118;27.258;2023-12-22T05:11:06;99134.41;;;5.95;100.00
6565;BME280;3316;44.118;27.258;2023-12-22T05:13:31;99132.63;;;5.97;100.00
6565;BME280;3316;44.118;27.258;2023-12-22T05:15:57;99146.50;;;6.02;100.00
6565;BME280;3316;44.118;27.258;2023-12-22T05:18:23;99133.50;;;5.98;100.00
6565;BME280;3316;44.118;27.258;2023-12-22T05:20:48;99135.09;;;6.06;100.00
6565;BME280;3316;44.118;27.258;2023-12-22T05:23:15;99134.97;;;6.12;100.00
6565;BME280;3316;44.118;27.258;2023-12-22T05:25:41;99115.09;;;6.05;100.00
6565;BME280;3316;44.118;27.258;2023-12-22T05:28:06;99122.78;;;6.13;100.00
6565;BME280;3316;44.118;27.258;2023-12-22T05:30:32;99121.13;;;6.10;100.00
6565;BME280;3316;44.118;27.258;2023-12-22T05:32:57;99114.03;;;6.17;100.00
6565;BME280;3316;44.118;27.258;2023-12-22T05:35:22;99113.06;;;6.24;100.00
6565;BME280;3316;44.118;27.258;2023-12-22T05:37:48;99115.53;;;6.32;100.00
6565;BME280;3316;44.118;27.258;2023-12-22T05:40:13;99123.34;;;6.33;100.00
6565;BME280;3316;44.118;27.258;2023-12-22T05:42:39;99083.47;;;6.23;100.00
6565;BME280;3316;44.118;27.258;2023-12-22T05:45:05;99105.00;;;6.35;100.00
6565;BME280;3316;44.118;27.258;2023-12-22T05:47:32;99114.53;;;6.39;100.00
6565;BME280;3316;44.118;27.258;2023-12-22T05:49:58;99098.22;;;6.26;100.00
6565;BME280;3316;44.118;27.258;2023-12-22T05:52:23;99124.06;;;6.41;100.00
6565;BME280;3316;44.118;27.258;2023-12-22T05:54:49;99124.75;;;6.51;100.00
6565;BME280;3316;44.118;27.258;2023-12-22T05:57:14;99109.13;;;6.49;100.00
6565;BME280;3316;44.118;27.258;2023-12-22T05:59:40;99120.28;;;6.56;100.00
6565;BME280;3316;44.118;27.258;2023-12-22T06:02:05;99110.84;;;6.49;100.00
6565;BME280;3316;44.118;27.258;2023-12-22T06:04:31;99061.72;;;6.21;100.00
6565;BME280;3316;44.118;27.258;2023-12-22T06:06:56;99103.75;;;6.57;100.00
6565;BME280;3316;44.118;27.258;2023-12-22T06:09:22;99112.31;;;6.63;100.00
6565;BME280;3316;44.118;27.258;2023-12-22T06:11:48;99099.25;;;6.63;100.00
6565;BME280;3316;44.118;27.258;2023-12-22T06:14:13;99084.47;;;6.62;100.00
6565;BME280;3316;44.118;27.258;2023-12-22T06:16:39;99081.78;;;6.67;100.00
6565;BME280;3316;44.118;27.258;2023-12-22T06:19:05;99085.13;;;6.75;100.00
6565;BME280;3316;44.118;27.258;2023-12-22T06:21:31;99070.50;;;6.65;100.00
6565;BME280;3316;44.118;27.258;2023-12-22T06:23:57;99065.19;;;6.68;100.00
6565;BME280;3316;44.118;27.258;2023-12-22T06:26:22;99066.00;;;6.73;100.00
6565;BME280;3316;44.118;27.258;2023-12-22T06:28:48;99072.16;;;6.69;100.00
6565;BME280;3316;44.118;27.258;2023-12-22T06:31:20;99067.50;;;6.83;100.00
6565;BME280;3316;44.118;27.258;2023-12-22T06:33:50;99069.75;;;7.01;100.00
6565;BME280;3316;44.118;27.258;2023-12-22T06:38:45;99074.84;;;7.07;100.00
6565;BME280;3316;44.118;27.258;2023-12-22T06:41:20;99076.78;;;6.97;100.00
6565;BME280;3316;44.118;27.258;2023-12-22T06:43:46;99067.22;;;6.96;100.00
6565;BME280;3316;44.118;27.258;2023-12-22T06:46:22;99082.78;;;7.04;100.00
6565;BME280;3316;44.118;27.258;2023-12-22T06:48:48;99070.66;;;7.00;100.00
6565;BME280;3316;44.118;27.258;2023-12-22T06:53:48;99066.34;;;6.97;100.00
6565;BME280;3316;44.118;27.258;2023-12-22T06:56:24;99074.06;;;7.03;100.00
6565;BME280;3316;44.118;27.258;2023-12-22T06:58:51;99080.91;;;7.09;100.00
6565;BME280;3316;44.118;27.258;2023-12-22T07:01:29;99079.78;;;7.20;100.00
6565;BME280;3316;44.118;27.258;2023-12-22T07:03:55;99083.31;;;7.18;100.00
6565;BME280;3316;44.118;27.258;2023-12-22T07:06:22;99069.28;;;7.22;100.00
6565;BME280;3316;44.118;27.258;2023-12-22T07:14:24;99073.16;;;7.44;100.00
6565;BME280;3316;44.118;27.258;2023-12-22T07:16:49;99054.84;;;7.44;100.00
6565;BME280;3316;44.118;27.258;2023-12-22T07:19:15;99038.41;;;7.38;100.00
6565;BME280;3316;44.118;27.258;2023-12-22T07:21:41;99064.16;;;7.56;100.00
6565;BME280;3316;44.118;27.258;2023-12-22T07:24:06;99057.88;;;7.64;100.00
6565;BME280;3316;44.118;27.258;2023-12-22T07:26:32;99054.28;;;7.67;100.00
6565;BME280;3316;44.118;27.258;2023-12-22T07:28:58;99059.56;;;7.65;100.00
6565;BME280;3316;44.118;27.258;2023-12-22T07:31:24;99056.91;;;7.68;100.00
6565;BME280;3316;44.118;27.258;2023-12-22T07:33:49;99041.53;;;7.53;100.00
6565;BME280;3316;44.118;27.258;2023-12-22T07:36:15;99060.34;;;7.70;100.00
6565;BME280;3316;44.118;27.258;2023-12-22T07:38:40;99066.13;;;7.83;100.00
6565;BME280;3316;44.118;27.258;2023-12-22T07:41:05;99061.81;;;7.82;100.00
6565;BME280;3316;44.118;27.258;2023-12-22T07:43:31;99067.88;;;7.84;100.00
6565;BME280;3316;44.118;27.258;2023-12-22T07:45:57;99063.59;;;7.78;98.75
6565;BME280;3316;44.118;27.258;2023-12-22T07:48:22;99067.19;;;7.74;100.00
6565;BME280;3316;44.118;27.258;2023-12-22T07:50:50;99064.63;;;7.73;100.00
6565;BME280;3316;44.118;27.258;2023-12-22T07:53:16;99049.69;;;7.78;100.00
6565;BME280;3316;44.118;27.258;2023-12-22T07:55:43;99051.25;;;7.85;100.00
6565;BME280;3316;44.118;27.258;2023-12-22T07:58:08;99055.69;;;7.81;100.00
6565;BME280;3316;44.118;27.258;2023-12-22T08:00:34;99070.25;;;7.93;99.14
6565;BME280;3316;44.118;27.258;2023-12-22T08:02:59;99048.44;;;7.92;97.41
6565;BME280;3316;44.118;27.258;2023-12-22T08:05:26;98951.06;;;7.45;96.51
6565;BME280;3316;44.118;27.258;2023-12-22T08:07:51;99051.09;;;7.91;97.73
6565;BME280;3316;44.118;27.258;2023-12-22T08:10:17;99059.81;;;7.91;97.29
6565;BME280;3316;44.118;27.258;2023-12-22T08:12:42;99040.56;;;7.92;97.50
6565;BME280;3316;44.118;27.258;2023-12-22T08:15:08;98963.22;;;7.46;95.53
6565;BME280;3316;44.118;27.258;2023-12-22T08:17:37;99055.97;;;8.04;95.95
6565;BME280;3316;44.118;27.258;2023-12-22T08:20:06;99052.50;;;8.04;95.13
6565;BME280;3316;44.118;27.258;2023-12-22T08:22:33;99054.59;;;8.27;94.88
6565;BME280;3316;44.118;27.258;2023-12-22T08:24:59;99059.41;;;8.42;93.44
6565;BME280;3316;44.118;27.258;2023-12-22T08:27:24;99040.03;;;8.47;93.16
6565;BME280;3316;44.118;27.258;2023-12-22T08:29:50;99019.84;;;8.51;91.26
6565;BME280;3316;44.118;27.258;2023-12-22T08:32:15;99002.25;;;8.54;89.26
6565;BME280;3316;44.118;27.258;2023-12-22T08:34:40;99011.59;;;8.64;89.46
6565;BME280;3316;44.118;27.258;2023-12-22T08:37:06;99020.03;;;8.74;88.95
6565;BME280;3316;44.118;27.258;2023-12-22T08:39:31;98949.41;;;8.39;89.28
6565;BME280;3316;44.118;27.258;2023-12-22T08:41:57;99003.53;;;8.70;90.01
6565;BME280;3316;44.118;27.258;2023-12-22T08:44:22;98994.78;;;8.71;90.62
6565;BME280;3316;44.118;27.258;2023-12-22T08:46:48;98996.44;;;8.74;91.37
6565;BME280;3316;44.118;27.258;2023-12-22T08:49:13;98989.63;;;8.68;92.54
6565;BME280;3316;44.118;27.258;2023-12-22T08:51:39;98990.53;;;8.67;93.19
6565;BME280;3316;44.118;27.258;2023-12-22T08:54:04;98991.25;;;8.72;93.51
6565;BME280;3316;44.118;27.258;2023-12-22T08:56:29;98925.47;;;8.52;92.88
6565;BME280;3316;44.118;27.258;2023-12-22T08:58:55;98959.66;;;8.77;92.03
6565;BME280;3316;44.118;27.258;2023-12-22T09:01:23;98955.72;;;8.91;91.83
6565;BME280;3316;44.118;27.258;2023-12-22T09:03:49;98954.41;;;9.06;90.46
6565;BME280;3316;44.118;27.258;2023-12-22T09:06:16;98934.03;;;9.14;90.67
6565;BME280;3316;44.118;27.258;2023-12-22T09:08:42;98901.81;;;9.11;89.81
6565;BME280;3316;44.118;27.258;2023-12-22T09:11:10;98926.16;;;9.40;89.57
6565;BME280;3316;44.118;27.258;2023-12-22T09:13:35;98927.50;;;10.04;85.77
6565;BME280;3316;44.118;27.258;2023-12-22T09:16:02;98914.78;;;10.41;82.70
6565;BME280;3316;44.118;27.258;2023-12-22T09:18:28;98881.31;;;9.97;84.40
6565;BME280;3316;44.118;27.258;2023-12-22T09:20:53;98906.34;;;10.07;86.14
6565;BME280;3316;44.118;27.258;2023-12-22T09:23:19;98908.81;;;10.13;87.54
6565;BME280;3316;44.118;27.258;2023-12-22T09:25:45;98913.25;;;10.11;89.22
6565;BME280;3316;44.118;27.258;2023-12-22T09:28:11;98907.09;;;10.12;91.33
6565;BME280;3316;44.118;27.258;2023-12-22T09:30:38;98893.78;;;10.17;92.11
6565;BME280;3316;44.118;27.258;2023-12-22T09:33:11;98891.00;;;10.21;93.38
6565;BME280;3316;44.118;27.258;2023-12-22T09:35:37;98890.47;;;10.12;94.58
6565;BME280;3316;44.118;27.258;2023-12-22T09:38:07;98880.84;;;10.11;96.61
6565;BME280;3316;44.118;27.258;2023-12-22T09:40:32;98885.28;;;10.10;98.45
6565;BME280;3316;44.118;27.258;2023-12-22T09:43:00;98870.66;;;10.02;99.74
6565;BME280;3316;44.118;27.258;2023-12-22T09:45:27;98861.91;;;10.01;100.00
6565;BME280;3316;44.118;27.258;2023-12-22T09:47:56;98869.31;;;10.15;99.98
6565;BME280;3316;44.118;27.258;2023-12-22T09:50:22;98862.31;;;10.15;100.00
6565;BME280;3316;44.118;27.258;2023-12-22T09:52:48;98885.00;;;10.41;100.00
6565;BME280;3316;44.118;27.258;2023-12-22T09:55:13;98842.38;;;10.33;99.14
6565;BME280;3316;44.118;27.258;2023-12-22T09:57:39;98879.59;;;10.90;97.89
6565;BME280;3316;44.118;27.258;2023-12-22T10:00:10;98868.44;;;11.27;93.31
6565;BME280;3316;44.118;27.258;2023-12-22T10:02:39;98867.09;;;11.99;89.26
6565;BME280;3316;44.118;27.258;2023-12-22T10:05:05;98855.69;;;12.18;87.04
6565;BME280;3316;44.118;27.258;2023-12-22T10:07:31;98843.38;;;11.99;87.90
6565;BME280;3316;44.118;27.258;2023-12-22T10:09:59;98859.72;;;11.87;89.36
6565;BME280;3316;44.118;27.258;2023-12-22T10:12:27;98862.75;;;11.98;90.41
6565;BME280;3316;44.118;27.258;2023-12-22T10:14:53;98858.88;;;12.25;89.21
6565;BME280;3316;44.118;27.258;2023-12-22T10:17:19;98863.16;;;12.27;89.27
6565;BME280;3316;44.118;27.258;2023-12-22T10:19:45;98864.59;;;13.45;83.37
6565;BME280;3316;44.118;27.258;2023-12-22T10:22:10;98876.00;;;14.31;74.94
6565;BME280;3316;44.118;27.258;2023-12-22T10:24:42;98876.53;;;14.37;73.87
6565;BME280;3316;44.118;27.258;2023-12-22T10:27:09;98867.47;;;13.91;76.14
6565;BME280;3316;44.118;27.258;2023-12-22T10:29:35;98863.19;;;14.06;76.05
6565;BME280;3316;44.118;27.258;2023-12-22T10:32:01;98864.28;;;14.02;77.61
6565;BME280;3316;44.118;27.258;2023-12-22T10:34:28;98874.59;;;14.06;77.57
6565;BME280;3316;44.118;27.258;2023-12-22T10:36:54;98867.25;;;13.62;76.20
6565;BME280;3316;44.118;27.258;2023-12-22T10:39:19;98858.81;;;13.19;81.73
6565;BME280;3316;44.118;27.258;2023-12-22T10:41:46;98860.19;;;13.09;82.44
6565;BME280;3316;44.118;27.258;2023-12-22T10:44:14;98858.19;;;12.96;82.48
6565;BME280;3316;44.118;27.258;2023-12-22T10:46:40;98827.47;;;12.76;82.46
6565;BME280;3316;44.118;27.258;2023-12-22T10:49:07;98836.94;;;12.99;82.69
6565;BME280;3316;44.118;27.258;2023-12-22T10:51:32;98844.63;;;13.56;78.37
6565;BME280;3316;44.118;27.258;2023-12-22T10:53:58;98836.47;;;13.44;77.91
6565;BME280;3316;44.118;27.258;2023-12-22T10:56:25;98831.31;;;13.58;77.39
6565;BME280;3316;44.118;27.258;2023-12-22T10:58:51;98830.56;;;13.73;77.84
6565;BME280;3316;44.118;27.258;2023-12-22T11:01:23;98839.97;;;13.78;76.12
6565;BME280;3316;44.118;27.258;2023-12-22T11:03:51;98810.13;;;13.76;75.86
6565;BME280;3316;44.118;27.258;2023-12-22T11:06:17;98831.09;;;13.62;77.07
6565;BME280;3316;44.118;27.258;2023-12-22T11:08:43;98833.56;;;12.95;80.33
6565;BME280;3316;44.118;27.258;2023-12-22T11:11:27;98774.38;;;11.71;87.07
6565;BME280;3316;44.118;27.258;2023-12-22T11:13:56;98802.63;;;11.67;91.63
6565;BME280;3316;44.118;27.258;2023-12-22T11:16:24;98811.63;;;11.61;93.77
6565;BME280;3316;44.118;27.258;2023-12-22T11:18:53;98776.69;;;11.38;96.92
6565;BME280;3316;44.118;27.258;2023-12-22T11:21:22;98776.88;;;11.33;97.07
6565;BME280;3316;44.118;27.258;2023-12-22T11:23:49;98799.25;;;11.43;98.55
6565;BME280;3316;44.118;27.258;2023-12-22T11:26:16;98788.59;;;11.67;98.58
6565;BME280;3316;44.118;27.258;2023-12-22T11:28:42;98768.47;;;12.41;92.03
6565;BME280;3316;44.118;27.258;2023-12-22T11:31:10;98777.34;;;13.29;84.96
6565;BME280;3316;44.118;27.258;2023-12-22T11:33:36;98764.84;;;13.32;83.05
6565;BME280;3316;44.118;27.258;2023-12-22T11:36:03;98765.78;;;13.31;82.18
6565;BME280;3316;44.118;27.258;2023-12-22T11:38:29;98752.47;;;12.63;85.71
6565;BME280;3316;44.118;27.258;2023-12-22T11:40:54;98758.56;;;11.71;95.27
6565;BME280;3316;44.118;27.258;2023-12-22T11:43:21;98766.19;;;11.77;99.25
6565;BME280;3316;44.118;27.258;2023-12-22T11:45:49;98749.28;;;11.62;99.94
6565;BME280;3316;44.118;27.258;2023-12-22T11:48:15;98744.66;;;11.87;99.82
6565;BME280;3316;44.118;27.258;2023-12-22T11:50:41;98727.63;;;12.31;96.21
6565;BME280;3316;44.118;27.258;2023-12-22T11:53:18;98760.63;;;12.40;95.48
6565;BME280;3316;44.118;27.258;2023-12-22T11:56:03;98772.41;;;11.76;100.00
6565;BME280;3316;44.118;27.258;2023-12-22T11:58:41;98768.00;;;11.36;100.00
6565;BME280;3316;44.118;27.258;2023-12-22T12:01:12;98797.31;;;11.07;100.00
6565;BME280;3316;44.118;27.258;2023-12-22T12:03:42;98790.97;;;10.91;100.00
6565;BME280;3316;44.118;27.258;2023-12-22T12:08:57;98798.50;;;11.00;100.00
6565;BME280;3316;44.118;27.258;2023-12-22T12:11:23;98812.47;;;10.80;100.00
6565;BME280;3316;44.118;27.258;2023-12-22T12:13:50;98800.13;;;10.37;100.00
6565;BME280;3316;44.118;27.258;2023-12-22T12:16:20;98821.41;;;10.31;100.00
6565;BME280;3316;44.118;27.258;2023-12-22T12:18:47;98827.97;;;10.20;100.00
6565;BME280;3316;44.118;27.258;2023-12-22T12:21:13;98814.16;;;9.90;100.00
6565;BME280;3316;44.118;27.258;2023-12-22T12:23:38;98817.03;;;10.07;100.00
6565;BME280;3316;44.118;27.258;2023-12-22T12:26:07;98822.50;;;10.26;100.00
6565;BME280;3316;44.118;27.258;2023-12-22T12:28:35;98810.84;;;10.10;100.00
6565;BME280;3316;44.118;27.258;2023-12-22T12:31:04;98816.91;;;10.12;100.00
6565;BME280;3316;44.118;27.258;2023-12-22T12:33:30;98790.88;;;9.81;100.00
6565;BME280;3316;44.118;27.258;2023-12-22T12:35:57;98798.03;;;9.76;100.00
6565;BME280;3316;44.118;27.258;2023-12-22T12:38:34;98804.47;;;9.67;100.00
6565;BME280;3316;44.118;27.258;2023-12-22T12:41:03;98786.16;;;9.41;100.00
6565;BME280;3316;44.118;27.258;2023-12-22T12:43:29;98810.16;;;9.31;100.00
6565;BME280;3316;44.118;27.258;2023-12-22T12:45:54;98822.44;;;9.30;100.00
6565;BME280;3316;44.118;27.258;2023-12-22T12:48:21;98816.53;;;9.24;100.00
6565;BME280;3316;44.118;27.258;2023-12-22T12:50:47;98800.59;;;9.04;100.00
6565;BME280;3316;44.118;27.258;2023-12-22T12:53:13;98829.03;;;9.16;100.00
6565;BME280;3316;44.118;27.258;2023-12-22T12:55:38;98823.31;;;9.05;100.00
6565;BME280;3316;44.118;27.258;2023-12-22T12:58:04;98822.38;;;9.06;100.00
6565;BME280;3316;44.118;27.258;2023-12-22T13:00:31;98826.72;;;9.07;100.00
6565;BME280;3316;44.118;27.258;2023-12-22T13:03:04;98839.66;;;9.13;100.00
6565;BME280;3316;44.118;27.258;2023-12-22T13:05:30;98821.22;;;9.14;100.00
6565;BME280;3316;44.118;27.258;2023-12-22T13:08:09;98844.09;;;9.11;100.00
6565;BME280;3316;44.118;27.258;2023-12-22T13:10:36;98846.50;;;9.17;100.00
6565;BME280;3316;44.118;27.258;2023-12-22T13:13:02;98815.69;;;8.97;100.00
6565;BME280;3316;44.118;27.258;2023-12-22T13:15:28;98816.94;;;9.12;100.00
6565;BME280;3316;44.118;27.258;2023-12-22T13:17:54;98823.31;;;9.05;100.00
6565;BME280;3316;44.118;27.258;2023-12-22T13:20:20;98821.63;;;9.02;100.00
6565;BME280;3316;44.118;27.258;2023-12-22T13:22:46;98822.56;;;9.01;100.00
6565;BME280;3316;44.118;27.258;2023-12-22T13:25:12;98838.28;;;9.01;100.00